TimeCDT,TemperatureF,Dew PointF,Humidity,Sea Level PressureIn,VisibilityMPH,Wind Direction,Wind SpeedMPH,Gust SpeedMPH,PrecipitationIn,Events,Conditions,WindDirDegrees,DateUTC
12:57 AM,70.0,62.1,76,29.92,10.0,SSE,10.4,-,N/A,,Mostly Cloudy,160,2012-10-24 05:57:00
1:57 AM,66.9,61.0,81,29.93,10.0,SE,6.9,-,N/A,,Clear,140,2012-10-24 06:57:00
3:57 AM,64.9,61.0,87,29.93,10.0,SE,6.9,-,N/A,,Clear,140,2012-10-24 08:57:00
4:57 AM,64.0,61.0,90,29.94,10.0,SE,5.8,-,N/A,,Clear,140,2012-10-24 09:57:00
5:57 AM,64.0,61.0,90,29.95,10.0,SE,9.2,-,N/A,,Partly Cloudy,140,2012-10-24 10:57:00
8:05 AM,64.4,60.8,88,29.98,10.0,SSE,9.2,-,N/A,,Partly Cloudy,160,2012-10-24 13:05:00
8:57 AM,68.0,62.1,81,29.96,10.0,South,13.8,-,N/A,,Clear,170,2012-10-24 13:57:00
9:57 AM,73.0,63.0,71,29.96,10.0,South,16.1,24.2,N/A,,Clear,190,2012-10-24 14:57:00
10:57 AM,75.9,63.0,64,29.95,10.0,SSW,23.0,29.9,N/A,,Clear,200,2012-10-24 15:57:00
11:57 AM,77.0,63.0,62,29.94,10.0,SSW,21.9,29.9,N/A,,Clear,200,2012-10-24 16:57:00
12:57 PM,79.0,63.0,58,29.91,10.0,SSW,19.6,27.6,N/A,,Partly Cloudy,210,2012-10-24 17:57:00
1:57 PM,79.0,63.0,58,29.89,10.0,South,15.0,21.9,N/A,,Mostly Cloudy,190,2012-10-24 18:57:00
2:57 PM,79.0,63.0,58,29.87,10.0,South,18.4,-,N/A,,Scattered Clouds,170,2012-10-24 19:57:00
3:57 PM,78.1,62.1,58,29.86,10.0,South,15.0,23.0,N/A,,Partly Cloudy,170,2012-10-24 20:57:00
4:57 PM,79.0,61.0,54,29.86,10.0,South,13.8,-,N/A,,Mostly Cloudy,180,2012-10-24 21:57:00
5:57 PM,75.0,60.1,60,29.86,10.0,South,12.7,-,N/A,,Clear,170,2012-10-24 22:57:00
6:57 PM,73.0,61.0,66,29.86,10.0,SSE,10.4,-,N/A,,Clear,160,2012-10-24 23:57:00
7:57 PM,72.0,61.0,68,29.86,10.0,SSE,12.7,-,N/A,,Clear,150,2012-10-25 00:57:00
8:57 PM,71.1,60.1,68,29.85,10.0,SSE,11.5,-,N/A,,Clear,150,2012-10-25 01:57:00
9:57 PM,71.1,60.1,68,29.84,10.0,SSE,13.8,19.6,N/A,,Clear,160,2012-10-25 02:57:00
10:57 PM,71.1,61.0,70,29.82,10.0,South,13.8,24.2,N/A,,Clear,170,2012-10-25 03:57:00